Rich Lake, Canada
Current Conditions -  °F | °C
As of 10:00 PM on Tuesday 25 Nov 2014 (Local Time) from CYOD Reporting Station
Light Snow Light Snow  
Wind Chill: -6°   Ceiling: 2200
Heat Index:   Visibility: 8mi
Dew Point:   Wind: 6mph
Humidity: 85%   Direction: 140°SE
Pressure: 30.29"   Gusts: NA
Location:  54.51°N, 111.62°W
Report Text: CYOD 260500Z 14005KT 8SM -SN OVC022 M15/M17 A3029 RMK SC8SLP307
Loading
Personal Weather Stations






























Interactive Weather Map New forecast layout! Learn more

10-Day Weather Forecast

Advertisements
Track Severe Weather on mobile